Terminal Aerodrome Forecast
Issued by NWS

Home | Current Version | Previous Version | Graphics & Text | Print | Product List | Glossary On
Versions: 1 2 3 4 5 6 7 8 9 10 11 12 13 14 15
000
FTUS43 KOAX 132300
TAFCDR
TAF
KCDR 132320Z 1400/1424 02020G28KT P6SM OVC035
     FM140200 35007KT 5SM BR BKN025
     FM140600 35006KT 2SM BR OVC015
     FM141400 30015KT P6SM SCT050=

USA.gov is the U.S. government's official web portal to all federal, state and local government web resources and services.